createdAt,value
2023-01-25T00:01:05.034Z,17.37
2023-01-25T00:03:35.023Z,14.97
2023-01-25T00:06:04.575Z,17.23
2023-01-25T00:08:32.847Z,17.23
2023-01-25T00:10:59.374Z,15.73
2023-01-25T00:13:26.950Z,15.80
2023-01-25T00:15:53.407Z,16.17
2023-01-25T00:18:19.997Z,14.60
2023-01-25T00:20:46.439Z,14.40
2023-01-25T00:23:12.881Z,14.20
2023-01-25T00:25:39.324Z,13.67
2023-01-25T00:28:05.763Z,15.70
2023-01-25T00:30:35.495Z,14.77
2023-01-25T00:33:20.212Z,13.77
2023-01-25T00:35:48.789Z,15.30
2023-01-25T00:38:29.645Z,14.37
2023-01-25T00:40:57.914Z,15.43
2023-01-25T00:43:24.436Z,13.60
2023-01-25T00:45:51.087Z,14.53
2023-01-25T00:48:17.779Z,14.60
2023-01-25T00:50:44.264Z,14.03
2023-01-25T00:53:10.760Z,12.07
2023-01-25T00:55:37.242Z,13.70
2023-01-25T00:58:06.032Z,15.70
2023-01-25T01:00:32.455Z,13.93
2023-01-25T01:02:58.929Z,14.57
2023-01-25T01:05:27.162Z,14.17
2023-01-25T01:07:56.054Z,14.43
2023-01-25T01:10:22.616Z,15.40
2023-01-25T01:12:49.047Z,14.30
2023-01-25T01:15:15.591Z,15.33
2023-01-25T01:17:42.033Z,15.80
2023-01-25T01:20:09.197Z,14.90
2023-01-25T01:22:38.482Z,16.03
2023-01-25T01:25:09.605Z,14.37
2023-01-25T01:27:37.572Z,13.53
2023-01-25T01:30:04.456Z,12.43
2023-01-25T01:32:31.520Z,14.47
2023-01-25T01:34:58.116Z,15.43
2023-01-25T01:37:24.556Z,15.60
2023-01-25T01:39:52.080Z,13.33
2023-01-25T01:42:18.583Z,15.30
2023-01-25T01:44:49.340Z,15.80
2023-01-25T01:47:19.656Z,14.00
2023-01-25T01:49:54.162Z,14.20
2023-01-25T01:52:34.363Z,14.60
2023-01-25T01:55:11.797Z,14.70
2023-01-25T01:57:44.882Z,14.97
2023-01-25T02:00:23.276Z,13.33
2023-01-25T02:02:51.457Z,13.70
2023-01-25T02:05:24.813Z,14.20
2023-01-25T02:07:55.006Z,14.90
2023-01-25T02:10:22.911Z,14.07
2023-01-25T02:12:49.613Z,14.17
2023-01-25T02:15:16.124Z,14.77
2023-01-25T02:17:42.732Z,14.53
2023-01-25T02:20:35.383Z,13.90
2023-01-25T02:23:11.601Z,14.57
2023-01-25T02:25:40.589Z,14.00
2023-01-25T02:28:18.336Z,14.10
2023-01-25T02:30:46.007Z,15.27
2023-01-25T02:33:12.463Z,14.03
2023-01-25T02:35:41.344Z,14.07
2023-01-25T02:38:11.825Z,14.70
2023-01-25T02:41:08.134Z,15.43
2023-01-25T02:43:35.745Z,12.13
2023-01-25T02:46:26.084Z,13.90
2023-01-25T02:48:53.100Z,14.97
2023-01-25T02:51:19.700Z,14.47
2023-01-25T02:53:46.188Z,15.17
2023-01-25T02:56:12.650Z,14.53
2023-01-25T02:58:39.132Z,13.43
2023-01-25T03:01:05.732Z,15.63
2023-01-25T03:03:32.235Z,14.83
2023-01-25T03:05:58.664Z,12.60
2023-01-25T03:08:25.148Z,13.20
2023-01-25T03:10:51.811Z,13.37
2023-01-25T03:13:18.350Z,14.37
2023-01-25T03:15:44.803Z,13.30
2023-01-25T03:18:13.962Z,13.83
2023-01-25T03:20:40.395Z,13.17
2023-01-25T03:23:06.845Z,13.80
2023-01-25T03:25:33.396Z,15.17
2023-01-25T03:27:59.963Z,14.20
2023-01-25T03:30:26.495Z,12.13
2023-01-25T03:32:52.986Z,14.63
2023-01-25T03:35:19.430Z,13.57
2023-01-25T03:37:45.966Z,12.57
2023-01-25T03:40:16.474Z,13.53
2023-01-25T03:42:46.732Z,13.43
2023-01-25T03:45:16.302Z,13.10
2023-01-25T03:47:45.603Z,13.17
2023-01-25T03:50:14.282Z,11.97
2023-01-25T03:52:44.711Z,13.50
2023-01-25T03:55:11.510Z,14.03
2023-01-25T03:57:38.404Z,13.93
2023-01-25T04:00:05.369Z,13.93
2023-01-25T04:02:31.902Z,13.40
2023-01-25T04:04:58.424Z,13.53
2023-01-25T04:07:24.855Z,13.70
2023-01-25T04:09:52.056Z,14.70
2023-01-25T04:12:18.500Z,12.83
2023-01-25T04:14:48.085Z,12.43
2023-01-25T04:17:18.335Z,14.00
2023-01-25T04:19:48.512Z,13.70
2023-01-25T04:22:18.853Z,14.23
2023-01-25T04:24:48.795Z,12.60
2023-01-25T04:27:19.305Z,12.73
2023-01-25T04:29:47.010Z,11.93
2023-01-25T04:32:13.559Z,13.67
2023-01-25T04:34:40.372Z,13.33
2023-01-25T04:37:06.868Z,13.23
2023-01-25T04:39:33.380Z,13.07
2023-01-25T04:41:59.856Z,13.13
2023-01-25T04:44:26.280Z,12.67
2023-01-25T04:46:52.716Z,12.33
2023-01-25T04:49:19.313Z,14.50
2023-01-25T04:51:47.870Z,12.97
2023-01-25T04:54:14.342Z,13.03
2023-01-25T04:56:40.819Z,12.87
2023-01-25T04:59:07.289Z,13.40
2023-01-25T05:01:33.775Z,12.17
2023-01-25T05:04:00.319Z,12.37
2023-01-25T05:06:26.819Z,13.67
2023-01-25T05:08:53.248Z,12.87
2023-01-25T05:11:19.771Z,12.90
2023-01-25T05:13:46.257Z,12.70
2023-01-25T05:16:12.838Z,11.63
2023-01-25T05:18:48.384Z,12.67
2023-01-25T05:21:34.102Z,13.43
2023-01-25T05:24:00.644Z,13.30
2023-01-25T05:26:45.972Z,11.40
2023-01-25T05:29:12.470Z,11.47
2023-01-25T05:31:39.088Z,10.90
2023-01-25T05:34:05.669Z,11.27
2023-01-25T05:36:32.120Z,10.73
2023-01-25T05:38:58.568Z,10.53
2023-01-25T05:41:25.173Z,11.33
2023-01-25T05:43:51.667Z,11.30
2023-01-25T05:46:18.223Z,10.67
2023-01-25T05:48:52.894Z,13.00
2023-01-25T05:51:23.145Z,13.17
2023-01-25T05:53:55.871Z,10.60
2023-01-25T05:56:22.412Z,12.03
2023-01-25T05:58:56.396Z,11.07
2023-01-25T06:01:23.769Z,12.00
2023-01-25T06:03:55.058Z,11.47
2023-01-25T06:06:23.189Z,13.40
2023-01-25T06:08:54.343Z,13.43
2023-01-25T06:11:24.134Z,12.43
2023-01-25T06:13:52.367Z,10.87
2023-01-25T06:16:21.219Z,13.20
2023-01-25T06:18:47.995Z,12.90
2023-01-25T06:21:17.506Z,12.73
2023-01-25T06:23:45.378Z,13.50
2023-01-25T06:26:14.373Z,12.60
2023-01-25T06:28:47.517Z,13.03
2023-01-25T06:31:16.522Z,13.53
2023-01-25T06:33:47.625Z,13.17
2023-01-25T06:36:16.240Z,13.80
2023-01-25T06:38:43.044Z,11.90
2023-01-25T06:41:12.525Z,10.87
2023-01-25T06:43:40.206Z,11.67
2023-01-25T06:46:09.379Z,12.20
2023-01-25T06:48:35.962Z,10.70
2023-01-25T06:51:07.907Z,10.50
2023-01-25T06:53:39.713Z,11.40
2023-01-25T06:56:18.214Z,10.97
2023-01-25T06:58:45.445Z,11.90
2023-01-25T07:01:15.495Z,13.00
2023-01-25T07:03:42.729Z,11.90
2023-01-25T07:06:11.066Z,10.27
2023-01-25T07:08:38.215Z,10.90
2023-01-25T07:11:09.398Z,11.40
2023-01-25T07:13:36.624Z,11.50
2023-01-25T07:16:06.397Z,11.97
2023-01-25T07:18:33.851Z,12.63
2023-01-25T07:21:09.934Z,12.07
2023-01-25T07:23:38.015Z,12.40
2023-01-25T07:26:06.076Z,12.63
2023-01-25T07:28:33.377Z,11.67
2023-01-25T07:31:06.986Z,12.63
2023-01-25T07:33:34.430Z,12.77
2023-01-25T07:36:02.830Z,11.17
2023-01-25T07:38:29.835Z,10.60
2023-01-25T07:40:56.377Z,11.17
2023-01-25T07:43:23.277Z,12.00
2023-01-25T07:45:53.112Z,10.97
2023-01-25T07:48:23.568Z,11.73
2023-01-25T07:51:11.625Z,11.27
2023-01-25T07:53:43.201Z,12.27
2023-01-25T07:56:11.915Z,10.70
2023-01-25T07:58:38.594Z,11.07
2023-01-25T08:01:16.375Z,10.47
2023-01-25T08:03:46.244Z,11.17
2023-01-25T08:06:13.201Z,10.13
2023-01-25T08:08:42.872Z,10.53
2023-01-25T08:11:14.311Z,10.40
2023-01-25T08:13:41.531Z,11.80
2023-01-25T08:16:07.982Z,12.13
2023-01-25T08:18:36.002Z,13.00
2023-01-25T08:21:03.566Z,14.40
2023-01-25T08:23:30.801Z,13.43
2023-01-25T08:26:05.775Z,12.03
2023-01-25T08:28:32.723Z,11.63
2023-01-25T08:31:13.762Z,10.10
2023-01-25T08:33:42.666Z,9.70
2023-01-25T08:36:10.369Z,11.07
2023-01-25T08:38:37.632Z,10.70
2023-01-25T08:41:13.316Z,8.97
2023-01-25T08:43:40.472Z,9.83
2023-01-25T08:46:07.163Z,9.40
2023-01-25T08:48:34.072Z,10.70
2023-01-25T08:51:01.205Z,10.37
2023-01-25T08:53:29.143Z,11.20
2023-01-25T08:55:55.712Z,9.77
2023-01-25T08:58:22.582Z,10.77
2023-01-25T09:00:52.162Z,9.83
2023-01-25T09:03:21.330Z,10.40
2023-01-25T09:05:47.823Z,10.23
2023-01-25T09:08:14.424Z,11.63
2023-01-25T09:10:40.943Z,11.33
2023-01-25T09:13:08.733Z,9.90
2023-01-25T09:15:35.506Z,10.90
2023-01-25T09:18:01.989Z,9.80
2023-01-25T09:20:30.539Z,10.47
2023-01-25T09:22:59.679Z,9.83
2023-01-25T09:25:26.667Z,9.33
2023-01-25T09:27:53.161Z,9.83
2023-01-25T09:30:33.942Z,10.60
2023-01-25T09:33:07.499Z,9.80
2023-01-25T09:35:35.613Z,10.03
2023-01-25T09:38:02.321Z,10.07
2023-01-25T09:40:36.528Z,10.13
2023-01-25T09:43:15.908Z,10.10
2023-01-25T09:45:43.262Z,10.13
2023-01-25T09:48:21.080Z,10.10
2023-01-25T09:51:14.869Z,10.17
2023-01-25T09:53:47.605Z,10.63
2023-01-25T09:56:29.541Z,11.67
2023-01-25T09:59:00.995Z,10.63
2023-01-25T10:01:58.403Z,10.63
2023-01-25T10:04:28.613Z,11.50
2023-01-25T10:07:01.976Z,10.83
2023-01-25T10:09:46.327Z,11.23
2023-01-25T10:12:23.808Z,10.30
2023-01-25T10:14:52.349Z,11.07
2023-01-25T10:17:34.953Z,10.60
2023-01-25T10:20:26.808Z,11.30
2023-01-25T10:23:31.863Z,10.73
2023-01-25T10:26:00.163Z,11.20
2023-01-25T10:28:30.230Z,12.77
2023-01-25T10:31:26.133Z,14.60
2023-01-25T10:33:54.139Z,11.43
2023-01-25T10:36:29.963Z,12.00
2023-01-25T10:39:01.163Z,10.87
2023-01-25T10:41:32.635Z,12.27
2023-01-25T10:44:21.601Z,12.47
2023-01-25T10:47:12.808Z,10.97
2023-01-25T10:49:43.248Z,13.00
2023-01-25T10:52:24.275Z,12.43
2023-01-25T10:55:12.388Z,12.40
2023-01-25T10:57:44.406Z,12.93
2023-01-25T11:00:30.563Z,12.63
2023-01-25T11:02:57.570Z,11.43
2023-01-25T11:05:28.676Z,12.17
2023-01-25T11:07:56.013Z,12.43
2023-01-25T11:10:33.705Z,13.20
2023-01-25T11:13:15.402Z,13.17
2023-01-25T11:15:46.222Z,12.03
2023-01-25T11:18:35.087Z,14.17
2023-01-25T11:21:12.036Z,14.27
2023-01-25T11:23:38.846Z,14.03
2023-01-25T11:26:16.614Z,16.13
2023-01-25T11:28:51.720Z,15.73
2023-01-25T11:31:25.177Z,15.40
2023-01-25T11:33:52.708Z,16.53
2023-01-25T11:36:45.484Z,14.80
2023-01-25T11:39:43.863Z,15.30
2023-01-25T11:42:16.360Z,13.00
2023-01-25T11:44:48.761Z,12.73
2023-01-25T11:47:46.421Z,13.40
2023-01-25T11:50:30.749Z,13.23
2023-01-25T11:53:35.771Z,12.53
2023-01-25T11:56:08.102Z,13.50
2023-01-25T11:59:09.550Z,12.83
2023-01-25T12:01:56.244Z,12.23
2023-01-25T12:04:52.770Z,13.20
2023-01-25T12:07:27.561Z,12.10
2023-01-25T12:10:15.042Z,13.07
2023-01-25T12:13:04.326Z,13.07
2023-01-25T12:15:55.208Z,13.53
2023-01-25T12:18:44.845Z,13.37
2023-01-25T12:21:31.484Z,13.30
2023-01-25T12:24:13.701Z,12.13
2023-01-25T12:26:58.651Z,13.17
2023-01-25T12:29:52.363Z,12.23
2023-01-25T12:32:26.731Z,12.70
2023-01-25T12:35:22.643Z,13.30
2023-01-25T12:37:57.462Z,12.37
2023-01-25T12:40:42.496Z,12.00
2023-01-25T12:43:35.957Z,12.53
2023-01-25T12:46:13.822Z,13.17
2023-01-25T12:48:47.640Z,14.33
2023-01-25T12:51:15.843Z,12.10
2023-01-25T12:53:55.182Z,12.87
2023-01-25T12:56:44.745Z,12.23
2023-01-25T12:59:37.081Z,11.47
2023-01-25T13:02:42.177Z,11.60
2023-01-25T13:05:13.449Z,12.57
2023-01-25T13:07:56.319Z,11.90
2023-01-25T13:10:45.801Z,12.63
2023-01-25T13:13:21.932Z,12.50
2023-01-25T13:15:48.878Z,13.53
2023-01-25T13:18:24.185Z,13.13
2023-01-25T13:20:56.161Z,11.83
2023-01-25T13:23:48.466Z,12.70
2023-01-25T13:26:23.271Z,12.43
2023-01-25T13:28:52.336Z,11.87
2023-01-25T13:31:51.428Z,11.03
2023-01-25T13:34:39.586Z,12.03
2023-01-25T13:37:17.927Z,12.67
2023-01-25T13:39:47.556Z,12.27
2023-01-25T13:42:13.993Z,12.27
2023-01-25T13:44:46.114Z,12.73
2023-01-25T13:47:24.692Z,13.10
2023-01-25T13:50:09.971Z,13.63
2023-01-25T13:52:36.599Z,12.70
2023-01-25T13:55:17.582Z,13.17
2023-01-25T13:57:44.094Z,12.97
2023-01-25T14:00:16.537Z,12.97
2023-01-25T14:02:47.180Z,13.83
2023-01-25T14:05:28.649Z,11.33
2023-01-25T14:07:58.189Z,12.40
2023-01-25T14:10:27.905Z,11.90
2023-01-25T14:13:00.868Z,12.93
2023-01-25T14:15:29.029Z,12.13
2023-01-25T14:18:04.576Z,12.97
2023-01-25T14:20:31.452Z,12.77
2023-01-25T14:22:58.271Z,13.57
2023-01-25T14:25:28.406Z,10.20
2023-01-25T14:27:57.214Z,12.53
2023-01-25T14:30:27.918Z,12.27
2023-01-25T14:32:58.529Z,11.97
2023-01-25T14:38:37.243Z,10.47
2023-01-25T14:41:18.160Z,11.07
2023-01-25T14:43:48.259Z,11.33
2023-01-25T14:46:29.011Z,10.83
2023-01-25T14:49:13.438Z,11.67
2023-01-25T14:51:50.741Z,11.63
2023-01-25T14:54:23.947Z,10.63
2023-01-25T14:56:53.739Z,11.17
2023-01-25T14:59:44.653Z,10.37
2023-01-25T15:02:25.246Z,11.63
2023-01-25T15:05:31.031Z,10.50
2023-01-25T15:08:06.985Z,11.40
2023-01-25T15:10:36.155Z,11.67
2023-01-25T15:13:15.610Z,11.67
2023-01-25T15:16:01.813Z,10.10
2023-01-25T15:18:59.329Z,10.97
2023-01-25T15:21:34.093Z,10.23
2023-01-25T15:24:07.132Z,12.13
2023-01-25T15:26:35.820Z,11.10
2023-01-25T15:29:15.249Z,10.63
2023-01-25T15:31:43.647Z,9.97
2023-01-25T15:34:16.696Z,11.30
2023-01-25T15:36:43.445Z,10.67
2023-01-25T15:39:18.071Z,10.77
2023-01-25T15:41:45.356Z,10.23
2023-01-25T15:44:15.479Z,10.97
2023-01-25T15:46:45.316Z,10.80
2023-01-25T15:49:18.831Z,11.37
2023-01-25T15:51:45.401Z,12.07
2023-01-25T15:54:11.843Z,12.43
2023-01-25T15:56:41.851Z,10.53
2023-01-25T15:59:15.562Z,10.07
2023-01-25T16:01:42.145Z,11.43
2023-01-25T16:04:10.543Z,12.23
2023-01-25T16:06:50.550Z,13.90
2023-01-25T16:09:29.789Z,12.50
2023-01-25T16:12:01.709Z,14.10
2023-01-25T16:14:31.977Z,12.60
2023-01-25T16:17:03.163Z,11.93
2023-01-25T16:19:30.521Z,15.20
2023-01-25T16:22:00.293Z,10.90
2023-01-25T16:24:29.732Z,10.93
2023-01-25T16:27:02.071Z,10.00
2023-01-25T16:29:29.091Z,10.90
2023-01-25T16:31:55.830Z,10.27
2023-01-25T16:34:23.461Z,11.17
2023-01-25T16:36:50.880Z,11.57
2023-01-25T16:39:23.572Z,11.27
2023-01-25T16:41:50.322Z,10.43
2023-01-25T16:44:17.551Z,9.63
2023-01-25T16:46:45.135Z,10.60
2023-01-25T16:49:18.071Z,11.43
2023-01-25T16:51:50.330Z,11.30
2023-01-25T16:54:17.017Z,10.30
2023-01-25T16:56:43.881Z,11.03
2023-01-25T16:59:11.144Z,11.33
2023-01-25T17:01:39.942Z,11.57
2023-01-25T17:04:06.858Z,12.10
2023-01-25T17:06:35.605Z,11.57
2023-01-25T17:09:20.624Z,11.23
2023-01-25T17:11:49.516Z,11.67
2023-01-25T17:14:18.868Z,11.27
2023-01-25T17:16:47.929Z,12.23
2023-01-25T17:19:16.050Z,12.57
2023-01-25T17:21:43.077Z,12.93
2023-01-25T17:24:13.163Z,12.23
2023-01-25T17:26:40.843Z,11.77
2023-01-25T17:29:07.380Z,12.23
2023-01-25T17:31:34.776Z,12.47
2023-01-25T17:34:03.861Z,12.27
2023-01-25T17:36:30.677Z,11.83
2023-01-25T17:39:05.077Z,12.13
2023-01-25T17:41:32.312Z,11.23
2023-01-25T17:43:59.021Z,12.27
2023-01-25T17:46:33.444Z,12.07
2023-01-25T17:49:04.781Z,11.33
2023-01-25T17:51:33.732Z,11.97
2023-01-25T17:54:00.863Z,12.43
2023-01-25T17:56:31.387Z,11.40
2023-01-25T17:59:02.398Z,12.33
2023-01-25T18:01:32.165Z,12.37
2023-01-25T18:04:01.972Z,10.87
2023-01-25T18:06:31.432Z,10.77
2023-01-25T18:09:03.147Z,10.93
2023-01-25T18:11:34.739Z,11.27
2023-01-25T18:14:04.501Z,10.27
2023-01-25T18:16:32.068Z,11.07
2023-01-25T18:19:02.252Z,12.13
2023-01-25T18:21:33.253Z,11.10
2023-01-25T18:24:23.218Z,10.90
2023-01-25T18:26:51.177Z,11.30
2023-01-25T18:29:17.945Z,11.10
2023-01-25T18:31:45.750Z,12.40
2023-01-25T18:34:12.782Z,11.00
2023-01-25T18:36:39.299Z,10.97
2023-01-25T18:39:08.700Z,10.87
2023-01-25T18:41:35.818Z,11.93
2023-01-25T18:44:06.898Z,11.43
2023-01-25T18:46:33.575Z,13.07
2023-01-25T18:49:00.373Z,11.83
2023-01-25T18:51:27.337Z,11.07
2023-01-25T18:53:55.425Z,13.10
2023-01-25T18:56:22.787Z,13.50
2023-01-25T18:58:51.135Z,11.17
2023-01-25T19:01:20.535Z,12.23
2023-01-25T19:03:51.661Z,11.10
2023-01-25T19:06:20.050Z,12.33
2023-01-25T19:08:53.281Z,10.60
2023-01-25T19:11:22.374Z,12.27
2023-01-25T19:13:50.128Z,11.07
2023-01-25T19:16:24.414Z,10.17
2023-01-25T19:18:53.156Z,12.60
2023-01-25T19:21:22.149Z,11.57
2023-01-25T19:23:49.007Z,13.50
2023-01-25T19:26:18.165Z,12.70
2023-01-25T19:28:45.895Z,10.70
2023-01-25T19:31:16.190Z,10.33
2023-01-25T19:33:43.741Z,9.90
2023-01-25T19:36:18.083Z,10.47
2023-01-25T19:38:46.433Z,10.43
2023-01-25T19:41:18.579Z,9.73
2023-01-25T19:43:45.121Z,10.10
2023-01-25T19:46:14.488Z,9.90
2023-01-25T19:48:41.639Z,10.93
2023-01-25T19:51:18.716Z,10.27
2023-01-25T19:53:47.556Z,10.57
2023-01-25T19:56:17.745Z,10.33
2023-01-25T19:58:46.091Z,9.73
2023-01-25T20:01:15.573Z,10.13
2023-01-25T20:03:42.844Z,10.57
2023-01-25T20:06:10.648Z,10.53
2023-01-25T20:08:42.940Z,11.27
2023-01-25T20:11:21.621Z,9.37
2023-01-25T20:13:50.321Z,10.33
2023-01-25T20:16:20.459Z,11.53
2023-01-25T20:18:48.441Z,17.23
2023-01-25T20:21:17.453Z,11.77
2023-01-25T20:23:46.323Z,12.00
2023-01-25T20:26:18.644Z,10.90
2023-01-25T20:28:47.501Z,11.30
2023-01-25T20:31:21.589Z,10.17
2023-01-25T20:33:49.339Z,9.60
2023-01-25T20:36:15.920Z,10.70
2023-01-25T20:38:42.616Z,11.70
2023-01-25T20:41:14.127Z,9.40
2023-01-25T20:43:46.481Z,9.77
2023-01-25T20:46:13.330Z,10.17
2023-01-25T20:48:39.835Z,8.93
2023-01-25T20:51:13.192Z,9.47
2023-01-25T20:53:41.420Z,10.60
2023-01-25T20:56:09.293Z,9.70
2023-01-25T20:58:35.821Z,8.77
2023-01-25T21:01:13.486Z,9.13
2023-01-25T21:03:39.975Z,9.67
2023-01-25T21:06:07.201Z,9.77
2023-01-25T21:08:33.696Z,10.63
2023-01-25T21:11:02.878Z,9.27
2023-01-25T21:13:29.714Z,9.97
2023-01-25T21:16:12.785Z,11.00
2023-01-25T21:18:42.308Z,11.43
2023-01-25T21:21:10.989Z,9.20
2023-01-25T21:23:39.691Z,10.30
2023-01-25T21:26:08.034Z,10.33
2023-01-25T21:28:37.187Z,10.00
2023-01-25T21:31:17.343Z,10.03
2023-01-25T21:33:44.677Z,10.17
2023-01-25T21:36:15.958Z,9.37
2023-01-25T21:38:44.773Z,9.77
2023-01-25T21:41:14.349Z,9.10
2023-01-25T21:43:59.420Z,11.27
2023-01-25T21:46:27.979Z,10.50
2023-01-25T21:49:18.194Z,9.77
2023-01-25T21:51:49.720Z,8.47
2023-01-25T21:54:18.546Z,11.03
2023-01-25T21:56:46.444Z,9.33
2023-01-25T21:59:13.549Z,9.57
2023-01-25T22:01:40.573Z,9.33
2023-01-25T22:04:07.031Z,9.57
2023-01-25T22:06:36.163Z,9.97
2023-01-25T22:09:03.298Z,9.80
2023-01-25T22:11:31.465Z,10.13
2023-01-25T22:13:57.979Z,10.70
2023-01-25T22:16:24.823Z,8.40
2023-01-25T22:18:51.292Z,10.93
2023-01-25T22:21:22.753Z,10.03
2023-01-25T22:23:49.734Z,10.07
2023-01-25T22:26:18.679Z,9.17
2023-01-25T22:28:53.352Z,10.93
2023-01-25T22:31:25.286Z,10.30
2023-01-25T22:33:53.393Z,10.30
2023-01-25T22:36:22.745Z,10.93
2023-01-25T22:38:50.379Z,11.40
2023-01-25T22:41:22.166Z,10.77
2023-01-25T22:43:49.479Z,9.63
2023-01-25T22:46:18.958Z,9.60
2023-01-25T22:48:46.354Z,9.43
2023-01-25T22:51:18.878Z,10.03
2023-01-25T22:53:45.939Z,9.03
2023-01-25T22:56:18.619Z,9.57
2023-01-25T22:58:46.515Z,10.33
2023-01-25T23:01:24.980Z,11.10
2023-01-25T23:03:53.057Z,10.17
2023-01-25T23:06:28.745Z,8.87
2023-01-25T23:08:57.386Z,8.90
2023-01-25T23:11:25.120Z,9.93
2023-01-25T23:14:13.177Z,9.30
2023-01-25T23:16:43.335Z,8.83
2023-01-25T23:19:10.317Z,8.70
2023-01-25T23:21:36.771Z,9.00
2023-01-25T23:24:04.076Z,9.00
2023-01-25T23:26:38.508Z,8.73
2023-01-25T23:29:12.660Z,8.73
2023-01-25T23:31:43.203Z,8.53
2023-01-25T23:34:12.968Z,8.93
2023-01-25T23:36:43.452Z,9.37
2023-01-25T23:39:13.182Z,8.93
2023-01-25T23:41:41.488Z,8.20
2023-01-25T23:44:13.127Z,8.50
2023-01-25T23:46:43.016Z,8.70
2023-01-25T23:49:12.471Z,8.23
2023-01-25T23:51:41.400Z,8.57
2023-01-25T23:54:07.855Z,9.27
2023-01-25T23:56:34.285Z,8.20
2023-01-25T23:59:00.839Z,8.63
